createdAt,value
2018-07-31T00:02:25.706Z,55.75
2018-07-31T00:04:58.153Z,55.48
2018-07-31T00:07:29.850Z,55.24
2018-07-31T00:10:01.906Z,55.26
2018-07-31T00:12:34.104Z,55.05
2018-07-31T00:15:09.658Z,53.91
2018-07-31T00:17:46.383Z,53.81
2018-07-31T00:20:18.489Z,53.64
2018-07-31T00:22:51.137Z,54.29
2018-07-31T00:25:22.579Z,54.14
2018-07-31T00:27:58.041Z,53.16
2018-07-31T00:30:31.671Z,53.17
2018-07-31T00:33:02.398Z,54.06
2018-07-31T00:35:34.982Z,54.08
2018-07-31T00:38:07.319Z,53.51
2018-07-31T00:40:40.851Z,53.01
2018-07-31T00:43:14.592Z,53.40
2018-07-31T00:45:46.584Z,52.71
2018-07-31T00:48:19.806Z,53.45
2018-07-31T00:50:50.706Z,53.39
2018-07-31T00:53:22.763Z,53.55
2018-07-31T00:55:53.979Z,53.20
2018-07-31T00:58:26.358Z,53.49
2018-07-31T01:00:58.506Z,53.11
2018-07-31T01:03:31.894Z,53.37
2018-07-31T01:06:03.431Z,53.16
2018-07-31T01:08:35.572Z,52.86
2018-07-31T01:11:07.824Z,51.78
2018-07-31T01:13:40.248Z,52.89
2018-07-31T01:16:14.413Z,51.56
2018-07-31T01:18:47.430Z,51.78
2018-07-31T01:21:19.620Z,52.36
2018-07-31T01:23:51.047Z,52.03
2018-07-31T01:26:23.807Z,51.45
2018-07-31T01:28:55.185Z,52.13
2018-07-31T01:31:29.016Z,52.02
2018-07-31T01:34:00.547Z,52.13
2018-07-31T01:36:34.615Z,51.44
2018-07-31T01:39:09.501Z,51.88
2018-07-31T01:41:40.719Z,52.14
2018-07-31T01:44:12.421Z,51.25
2018-07-31T01:46:49.676Z,51.30
2018-07-31T01:49:21.470Z,52.41
2018-07-31T01:51:55.001Z,52.32
2018-07-31T01:54:28.771Z,51.53
2018-07-31T01:57:00.913Z,51.61
2018-07-31T01:59:35.686Z,51.49
2018-07-31T02:02:08.013Z,51.74
2018-07-31T02:04:39.941Z,51.32
2018-07-31T02:07:11.698Z,51.21
2018-07-31T02:09:44.812Z,52.00
2018-07-31T02:12:17.096Z,51.53
2018-07-31T02:14:49.820Z,51.04
2018-07-31T02:17:20.426Z,50.64
2018-07-31T02:19:51.839Z,50.84
2018-07-31T02:22:24.200Z,50.65
2018-07-31T02:24:58.093Z,50.68
2018-07-31T02:27:29.523Z,51.41
2018-07-31T02:30:06.249Z,50.44
2018-07-31T02:32:39.000Z,50.73
2018-07-31T02:35:10.342Z,51.27
2018-07-31T02:37:42.208Z,50.86
2018-07-31T02:40:12.927Z,50.38
2018-07-31T02:42:43.851Z,49.91
2018-07-31T02:45:15.600Z,49.40
2018-07-31T02:47:46.357Z,49.51
2018-07-31T02:50:16.763Z,49.40
2018-07-31T02:52:48.257Z,49.17
2018-07-31T02:55:18.029Z,49.04
2018-07-31T02:57:48.754Z,49.05
2018-07-31T03:00:18.512Z,49.72
2018-07-31T03:02:49.264Z,49.46
2018-07-31T03:05:19.138Z,48.11
2018-07-31T03:07:49.903Z,49.01
2018-07-31T03:10:20.086Z,48.23
2018-07-31T03:12:50.330Z,48.13
2018-07-31T03:15:20.821Z,47.99
2018-07-31T03:17:51.532Z,47.85
2018-07-31T03:20:22.389Z,48.25
2018-07-31T03:22:55.899Z,47.96
2018-07-31T03:25:27.055Z,47.84
2018-07-31T03:27:58.667Z,47.93
2018-07-31T03:30:30.461Z,46.79
2018-07-31T03:33:02.034Z,47.29
2018-07-31T03:35:33.629Z,47.08
2018-07-31T03:38:04.792Z,46.36
2018-07-31T03:40:37.706Z,47.18
2018-07-31T03:43:08.329Z,47.19
2018-07-31T03:45:39.385Z,46.46
2018-07-31T03:48:10.415Z,46.55
2018-07-31T03:50:42.399Z,47.31
2018-07-31T03:53:13.471Z,47.40
2018-07-31T03:55:45.918Z,47.33
2018-07-31T03:58:17.930Z,46.57
2018-07-31T04:00:52.196Z,47.62
2018-07-31T04:03:28.514Z,47.49
2018-07-31T04:05:59.895Z,46.85
2018-07-31T04:08:29.989Z,47.58
2018-07-31T04:11:00.938Z,47.42
2018-07-31T04:13:31.877Z,46.86
2018-07-31T04:16:03.517Z,47.32
2018-07-31T04:18:34.282Z,46.79
2018-07-31T04:21:05.644Z,47.23
2018-07-31T04:23:36.997Z,47.17
2018-07-31T04:26:08.461Z,46.08
2018-07-31T04:28:39.870Z,47.00
2018-07-31T04:31:13.368Z,45.62
2018-07-31T04:33:47.494Z,45.93
2018-07-31T04:36:18.949Z,45.79
2018-07-31T04:38:50.148Z,45.66
2018-07-31T04:41:21.987Z,46.23
2018-07-31T04:43:55.022Z,45.94
2018-07-31T04:46:29.717Z,45.56
2018-07-31T04:49:06.320Z,45.04
2018-07-31T04:51:37.984Z,45.85
2018-07-31T04:54:10.770Z,44.88
2018-07-31T04:56:41.512Z,44.49
2018-07-31T04:59:16.232Z,44.75
2018-07-31T05:01:47.237Z,45.02
2018-07-31T05:04:18.341Z,44.56
2018-07-31T05:06:52.242Z,45.25
2018-07-31T05:09:23.142Z,45.49
2018-07-31T05:11:54.028Z,45.52
2018-07-31T05:14:25.051Z,44.98
2018-07-31T05:16:57.360Z,45.03
2018-07-31T05:19:27.900Z,44.89
2018-07-31T05:22:01.399Z,43.98
2018-07-31T05:24:31.885Z,44.64
2018-07-31T05:27:02.525Z,43.91
2018-07-31T05:29:34.378Z,44.91
2018-07-31T05:32:05.845Z,44.84
2018-07-31T05:34:37.738Z,44.37
2018-07-31T05:37:08.408Z,43.80
2018-07-31T05:39:39.532Z,44.29
2018-07-31T05:42:11.011Z,43.55
2018-07-31T05:44:46.786Z,44.20
2018-07-31T05:47:20.389Z,42.95
2018-07-31T05:49:52.115Z,42.91
2018-07-31T05:52:25.196Z,42.87
2018-07-31T05:55:01.030Z,43.58
2018-07-31T05:57:31.387Z,43.63
2018-07-31T06:00:04.323Z,42.92
2018-07-31T06:02:39.394Z,42.90
2018-07-31T06:05:09.665Z,43.40
2018-07-31T06:07:40.287Z,43.21
2018-07-31T06:15:14.388Z,43.06
2018-07-31T06:17:46.382Z,42.88
2018-07-31T06:20:18.565Z,42.15
2018-07-31T06:22:51.043Z,42.06
2018-07-31T06:25:22.606Z,42.05
2018-07-31T06:27:55.789Z,42.95
2018-07-31T06:30:27.604Z,43.00
2018-07-31T06:32:58.542Z,42.19
2018-07-31T06:35:30.191Z,43.06
2018-07-31T06:38:02.501Z,42.23
2018-07-31T06:40:33.041Z,41.73
2018-07-31T06:43:04.599Z,41.79
2018-07-31T06:45:41.174Z,41.68
2018-07-31T06:48:13.441Z,42.67
2018-07-31T06:50:45.752Z,42.18
2018-07-31T06:53:20.266Z,41.65
2018-07-31T06:55:51.417Z,38.37
2018-07-31T06:58:24.417Z,38.77
2018-07-31T07:00:56.703Z,38.46
2018-07-31T07:03:27.939Z,37.77
2018-07-31T07:05:58.843Z,38.20
2018-07-31T07:08:30.089Z,38.06
2018-07-31T07:11:00.718Z,37.79
2018-07-31T07:13:31.847Z,37.89
2018-07-31T07:16:04.237Z,37.03
2018-07-31T07:18:34.939Z,37.76
2018-07-31T07:21:06.127Z,39.02
2018-07-31T07:23:48.309Z,39.26
2018-07-31T07:26:21.610Z,38.39
2018-07-31T07:28:54.441Z,38.94
2018-07-31T07:31:26.071Z,39.44
2018-07-31T07:33:59.900Z,39.95
2018-07-31T07:36:35.713Z,35.59
2018-07-31T07:39:18.068Z,33.67
2018-07-31T07:41:59.856Z,34.30
2018-07-31T07:44:36.742Z,35.01
2018-07-31T07:47:10.221Z,33.79
2018-07-31T07:49:45.275Z,33.69
2018-07-31T07:52:19.374Z,33.88
2018-07-31T07:54:51.896Z,34.29
2018-07-31T07:57:28.554Z,35.84
2018-07-31T08:00:00.074Z,36.05
2018-07-31T08:02:31.414Z,34.42
2018-07-31T08:05:02.413Z,35.37
2018-07-31T08:07:35.038Z,35.03
2018-07-31T08:10:06.426Z,35.40
2018-07-31T08:12:37.229Z,35.42
2018-07-31T08:15:07.827Z,36.34
2018-07-31T08:17:38.955Z,35.85
2018-07-31T08:20:09.835Z,36.00
2018-07-31T08:22:41.131Z,37.19
2018-07-31T08:25:11.671Z,36.62
2018-07-31T08:27:42.809Z,38.10
2018-07-31T08:30:13.388Z,37.56
2018-07-31T08:32:49.347Z,36.13
2018-07-31T08:35:26.224Z,36.55
2018-07-31T08:37:58.448Z,37.04
2018-07-31T08:40:30.500Z,36.62
2018-07-31T08:43:00.723Z,36.05
2018-07-31T08:45:31.557Z,35.29
2018-07-31T08:48:10.617Z,35.11
2018-07-31T08:50:47.649Z,35.30
2018-07-31T08:53:22.836Z,34.97
2018-07-31T08:56:13.220Z,33.49
2018-07-31T08:58:49.062Z,32.35
2018-07-31T09:01:21.350Z,32.37
2018-07-31T09:03:54.325Z,32.27
2018-07-31T09:06:26.220Z,34.20
2018-07-31T09:09:01.556Z,32.86
2018-07-31T09:11:45.333Z,33.38
2018-07-31T09:14:19.589Z,33.25
2018-07-31T09:16:58.792Z,33.16
2018-07-31T09:19:30.418Z,33.05
2018-07-31T09:22:04.648Z,32.53
2018-07-31T09:24:36.750Z,32.49
2018-07-31T09:27:14.769Z,32.93
2018-07-31T09:29:47.341Z,33.76
2018-07-31T09:32:27.968Z,34.62
2018-07-31T09:35:22.029Z,34.67
2018-07-31T09:37:58.542Z,33.29
2018-07-31T09:40:31.452Z,32.30
2018-07-31T09:43:04.302Z,32.52
2018-07-31T09:45:35.276Z,32.11
2018-07-31T09:48:08.601Z,32.23
2018-07-31T09:50:39.970Z,31.97
2018-07-31T09:53:11.139Z,31.73
2018-07-31T09:55:43.350Z,31.62
2018-07-31T09:58:16.554Z,31.96
2018-07-31T10:01:22.688Z,31.70
2018-07-31T10:03:54.412Z,31.78
2018-07-31T10:06:26.560Z,31.57
2018-07-31T10:08:56.394Z,32.31
2018-07-31T10:11:26.794Z,31.42
2018-07-31T10:13:58.354Z,32.36
2018-07-31T10:16:28.721Z,32.23
2018-07-31T10:18:59.216Z,31.62
2018-07-31T10:21:35.522Z,31.54
2018-07-31T10:24:08.796Z,31.33
2018-07-31T10:26:39.756Z,30.94
2018-07-31T10:29:10.840Z,31.13
2018-07-31T10:31:41.313Z,31.73
2018-07-31T10:34:11.594Z,30.94
2018-07-31T10:36:42.934Z,32.01
2018-07-31T10:39:16.442Z,31.80
2018-07-31T10:41:49.759Z,30.71
2018-07-31T10:44:20.330Z,30.09
2018-07-31T10:46:51.824Z,31.60
2018-07-31T10:49:31.618Z,31.27
2018-07-31T10:57:55.572Z,31.74
2018-07-31T11:00:39.079Z,31.22
2018-07-31T11:03:17.837Z,31.13
2018-07-31T11:05:51.760Z,31.26
2018-07-31T11:11:35.207Z,30.62
2018-07-31T11:14:11.315Z,30.41
2018-07-31T11:16:51.326Z,31.48
2018-07-31T11:20:30.138Z,32.93
2018-07-31T11:23:24.940Z,32.18
2018-07-31T11:26:17.641Z,31.27
2018-07-31T11:32:05.508Z,31.75
2018-07-31T11:34:45.425Z,32.61
2018-07-31T11:40:14.092Z,30.31
2018-07-31T11:42:58.269Z,30.76
2018-07-31T11:45:34.353Z,31.27
2018-07-31T11:48:07.894Z,31.88
2018-07-31T11:50:41.074Z,30.50
2018-07-31T11:53:20.114Z,30.71
2018-07-31T11:55:51.833Z,31.97
2018-07-31T11:58:24.592Z,31.17
2018-07-31T12:00:55.269Z,31.60
2018-07-31T12:03:28.304Z,31.13
2018-07-31T12:05:58.883Z,31.49
2018-07-31T12:08:35.318Z,32.28
2018-07-31T12:11:06.753Z,31.12
2018-07-31T12:13:39.796Z,31.89
2018-07-31T12:16:11.495Z,31.30
2018-07-31T12:18:42.228Z,31.01
2018-07-31T12:21:17.128Z,30.04
2018-07-31T12:23:50.154Z,32.17
2018-07-31T12:26:28.940Z,32.58
2018-07-31T12:29:07.129Z,32.75
2018-07-31T12:31:50.562Z,31.78
2018-07-31T12:34:21.037Z,32.29
2018-07-31T12:36:51.660Z,31.52
2018-07-31T12:39:24.439Z,31.50
2018-07-31T12:41:58.423Z,30.58
2018-07-31T12:44:29.684Z,29.46
2018-07-31T12:47:00.112Z,31.17
2018-07-31T12:49:30.901Z,31.31
2018-07-31T12:52:02.545Z,32.14
2018-07-31T12:54:33.550Z,32.67
2018-07-31T12:57:06.745Z,33.16
2018-07-31T12:59:42.400Z,32.60
2018-07-31T13:02:16.142Z,33.16
2018-07-31T13:04:50.904Z,33.40
2018-07-31T13:07:23.765Z,33.37
2018-07-31T13:09:54.100Z,32.97
2018-07-31T13:12:29.130Z,33.32
2018-07-31T13:15:01.140Z,33.31
2018-07-31T13:20:13.138Z,32.96
2018-07-31T13:25:22.054Z,33.85
2018-07-31T13:27:58.315Z,33.44
2018-07-31T13:30:30.775Z,32.73
2018-07-31T13:33:06.776Z,32.91
2018-07-31T13:35:45.921Z,32.92
2018-07-31T13:38:22.397Z,33.94
2018-07-31T13:40:54.139Z,33.06
2018-07-31T13:46:47.135Z,33.24
2018-07-31T13:49:18.380Z,33.54
2018-07-31T13:51:49.553Z,33.15
2018-07-31T13:54:21.553Z,32.45
2018-07-31T13:56:52.068Z,33.61
2018-07-31T13:59:27.359Z,33.11
2018-07-31T14:01:58.485Z,33.43
2018-07-31T14:04:28.615Z,34.03
2018-07-31T14:06:59.631Z,33.93
2018-07-31T14:09:35.194Z,34.03
2018-07-31T14:12:08.003Z,34.52
2018-07-31T14:14:43.759Z,33.93
2018-07-31T14:17:15.834Z,32.86
2018-07-31T14:19:52.762Z,32.61
2018-07-31T14:22:55.716Z,33.95
2018-07-31T14:25:30.152Z,33.01
2018-07-31T14:28:12.213Z,34.29
2018-07-31T14:30:53.433Z,34.85
2018-07-31T14:36:20.852Z,32.97
2018-07-31T14:44:38.337Z,34.56
2018-07-31T14:47:26.372Z,34.80
2018-07-31T14:50:05.248Z,34.69
2018-07-31T14:52:47.382Z,34.81
2018-07-31T14:55:27.033Z,34.82
2018-07-31T14:58:12.004Z,35.40
2018-07-31T15:00:44.937Z,35.17
2018-07-31T15:03:23.095Z,35.57
2018-07-31T15:05:58.640Z,35.69
2018-07-31T15:08:40.708Z,35.86
2018-07-31T15:11:15.235Z,34.60
2018-07-31T15:13:46.464Z,34.30
2018-07-31T15:16:24.252Z,35.28
2018-07-31T15:18:59.789Z,36.37
2018-07-31T15:21:33.552Z,35.52
2018-07-31T15:24:08.948Z,34.49
2018-07-31T15:26:44.191Z,35.73
2018-07-31T15:29:18.367Z,35.36
2018-07-31T15:31:56.317Z,36.16
2018-07-31T15:34:33.767Z,36.81
2018-07-31T15:37:07.588Z,37.48
2018-07-31T15:39:40.493Z,37.02
2018-07-31T15:42:20.389Z,38.82
2018-07-31T15:47:05.488Z,39.22
2018-07-31T15:49:42.053Z,38.17
2018-07-31T15:52:18.119Z,38.39
2018-07-31T15:54:52.735Z,38.29
2018-07-31T15:57:32.570Z,38.01
2018-07-31T16:00:07.539Z,37.94
2018-07-31T16:02:41.378Z,36.88
2018-07-31T16:05:16.199Z,37.68
2018-07-31T16:07:48.908Z,37.59
2018-07-31T16:10:20.082Z,37.47
2018-07-31T16:12:52.847Z,37.00
2018-07-31T16:15:25.021Z,37.45
2018-07-31T16:17:56.470Z,36.99
2018-07-31T16:20:35.546Z,37.35
2018-07-31T16:23:14.121Z,37.36
2018-07-31T16:25:50.974Z,36.94
2018-07-31T16:28:27.469Z,35.61
2018-07-31T16:30:57.924Z,35.27
2018-07-31T16:33:30.190Z,34.64
2018-07-31T16:36:02.866Z,34.83
2018-07-31T16:38:37.398Z,34.35
2018-07-31T16:41:10.661Z,34.73
2018-07-31T16:43:42.060Z,34.73
2018-07-31T16:46:13.764Z,36.35
2018-07-31T16:48:43.792Z,36.55
2018-07-31T16:51:15.840Z,35.84
2018-07-31T16:53:46.569Z,36.05
2018-07-31T16:56:17.937Z,37.23
2018-07-31T16:58:54.224Z,37.10
2018-07-31T17:01:27.787Z,37.38
2018-07-31T17:04:01.624Z,38.06
2018-07-31T17:06:38.587Z,38.66
2018-07-31T17:09:13.630Z,38.06
2018-07-31T17:11:50.830Z,39.11
2018-07-31T17:14:21.811Z,41.15
2018-07-31T17:16:56.174Z,40.90
2018-07-31T17:19:32.899Z,42.67
2018-07-31T17:22:04.317Z,43.01
2018-07-31T17:27:36.508Z,41.66
2018-07-31T17:33:14.836Z,43.13
2018-07-31T17:36:05.254Z,42.01
2018-07-31T17:38:58.225Z,42.42
2018-07-31T17:41:30.933Z,42.65
2018-07-31T17:44:12.857Z,42.14
2018-07-31T17:47:01.989Z,42.38
2018-07-31T17:55:42.428Z,43.48
2018-07-31T17:58:13.756Z,43.41
2018-07-31T18:00:46.551Z,44.81
2018-07-31T18:03:19.126Z,44.87
2018-07-31T18:05:51.172Z,43.90
2018-07-31T18:17:51.616Z,46.33
2018-07-31T18:20:34.877Z,46.81
2018-07-31T18:23:07.944Z,47.23
2018-07-31T18:25:38.634Z,47.49
2018-07-31T18:28:09.561Z,47.49
2018-07-31T18:30:40.425Z,48.12
2018-07-31T18:33:11.593Z,48.72
2018-07-31T18:35:42.358Z,48.49
2018-07-31T18:38:14.675Z,48.90
2018-07-31T18:40:51.301Z,49.07
2018-07-31T18:43:23.163Z,49.32
2018-07-31T18:45:54.964Z,48.80
2018-07-31T18:48:25.750Z,48.78
2018-07-31T18:50:56.432Z,49.32
2018-07-31T18:53:28.559Z,50.09
2018-07-31T18:56:00.145Z,49.03
2018-07-31T18:58:40.977Z,50.13
2018-07-31T19:01:13.336Z,50.76
2018-07-31T19:03:45.348Z,49.98
2018-07-31T19:06:17.422Z,50.05
2018-07-31T19:08:48.310Z,51.08
2018-07-31T19:11:35.507Z,51.07
2018-07-31T19:14:07.532Z,50.06
2018-07-31T19:16:37.963Z,51.05
2018-07-31T19:19:08.599Z,50.68
2018-07-31T19:21:40.346Z,50.48
2018-07-31T19:24:13.937Z,51.51
2018-07-31T19:26:47.170Z,51.31
2018-07-31T19:32:00.114Z,51.99
2018-07-31T19:34:31.037Z,51.91
2018-07-31T19:37:02.179Z,51.67
2018-07-31T19:39:33.739Z,51.42
2018-07-31T19:42:09.196Z,51.58
2018-07-31T19:44:46.090Z,50.89
2018-07-31T19:47:18.707Z,50.33
2018-07-31T19:49:49.857Z,50.53
2018-07-31T19:52:20.516Z,50.48
2018-07-31T19:54:55.694Z,50.63
2018-07-31T19:57:27.826Z,50.94
2018-07-31T20:02:39.187Z,52.21
2018-07-31T20:05:11.476Z,52.37
2018-07-31T20:07:53.496Z,51.85
2018-07-31T20:10:26.396Z,51.92
2018-07-31T20:15:34.611Z,51.92
2018-07-31T20:18:08.515Z,52.49
2018-07-31T20:20:39.118Z,53.33
2018-07-31T20:23:12.700Z,53.34
2018-07-31T20:25:46.756Z,53.15
2018-07-31T20:28:33.113Z,52.58
2018-07-31T20:31:16.367Z,53.03
2018-07-31T20:33:48.936Z,53.69
2018-07-31T20:36:24.374Z,52.87
2018-07-31T20:39:02.560Z,53.42
2018-07-31T20:41:40.428Z,54.11
2018-07-31T20:44:26.380Z,53.66
2018-07-31T20:46:59.894Z,55.23
2018-07-31T20:49:33.732Z,55.76
2018-07-31T20:52:04.947Z,55.14
2018-07-31T20:54:36.455Z,55.90
2018-07-31T20:57:07.698Z,55.53
2018-07-31T20:59:43.867Z,56.23
2018-07-31T21:02:15.527Z,57.63
2018-07-31T21:04:46.787Z,57.84
2018-07-31T21:07:20.890Z,57.18
2018-07-31T21:09:51.944Z,58.43
2018-07-31T21:12:22.654Z,58.15
2018-07-31T21:14:53.699Z,58.30
2018-07-31T21:17:28.325Z,59.45
2018-07-31T21:19:59.265Z,58.82
2018-07-31T21:22:32.265Z,58.59
2018-07-31T21:25:04.197Z,58.87
2018-07-31T21:27:35.018Z,59.03
2018-07-31T21:30:07.955Z,60.18
2018-07-31T21:32:38.340Z,59.66
2018-07-31T21:35:08.712Z,61.28
2018-07-31T21:37:42.284Z,60.82
2018-07-31T21:40:13.251Z,60.19
2018-07-31T21:42:43.663Z,61.18
2018-07-31T21:45:14.598Z,62.09
2018-07-31T21:47:44.924Z,62.68
2018-07-31T21:50:15.286Z,62.18
2018-07-31T21:52:45.580Z,63.47
2018-07-31T21:55:15.949Z,62.24
2018-07-31T21:57:48.676Z,62.89
2018-07-31T22:00:20.273Z,63.48
2018-07-31T22:02:50.926Z,63.79
2018-07-31T22:05:23.845Z,64.54
2018-07-31T22:07:54.264Z,65.87
2018-07-31T22:16:28.238Z,66.24
2018-07-31T22:30:47.538Z,65.79
2018-07-31T22:36:23.688Z,65.34
2018-07-31T22:38:58.071Z,65.46
2018-07-31T22:53:04.873Z,67.44
2018-07-31T23:15:42.882Z,68.32
2018-07-31T23:18:13.150Z,68.66
2018-07-31T23:23:50.440Z,67.28
2018-07-31T23:47:01.585Z,68.53
2018-07-31T23:49:51.448Z,67.38
2018-07-31T23:55:27.987Z,68.54
